Timber, Missouri
Current Conditions -  °F | °C
As of 9:58 PM on Saturday 22 Nov 2014 (Local Time) from KTBN Reporting Station
Overcast Overcast  
Wind Chill: 53°   Ceiling: 8500
Heat Index: 53°   Visibility: 10mi
Dew Point: 51°   Wind: 10mph
Humidity: 94%   Direction: 160°SSE
Pressure: 29.86"   Gusts: NA
Location:  37.5023°N, 91.4546°W
Report Text: KTBN 230358Z AUTO 16009KT 10SM FEW016 OVC085 12/11 A2986 RMK AO2 SLP113 T01150105
Loading
Personal Weather Stations






























Interactive Weather Map New forecast layout! Learn more

10-Day Weather Forecast

Advertisements
Track Severe Weather on mobile